sensor_id;sensor_type;location;lat;lon;timestamp;pressure;altitude;pressure_sealevel;temperature;humidity
75886;BME280;64561;44.018;10.144;2024-01-30T00:01:10;103467.22;;;4.97;91.70
75886;BME280;64561;44.018;10.144;2024-01-30T00:03:38;103466.38;;;4.88;93.08
75886;BME280;64561;44.018;10.144;2024-01-30T00:06:06;103468.50;;;4.84;93.36
75886;BME280;64561;44.018;10.144;2024-01-30T00:08:33;103457.34;;;4.81;93.93
75886;BME280;64561;44.018;10.144;2024-01-30T00:11:01;103463.84;;;4.88;93.57
75886;BME280;64561;44.018;10.144;2024-01-30T00:13:28;103470.97;;;4.92;93.04
75886;BME280;64561;44.018;10.144;2024-01-30T00:15:55;103463.19;;;4.99;93.42
75886;BME280;64561;44.018;10.144;2024-01-30T00:18:22;103462.25;;;4.99;92.23
75886;BME280;64561;44.018;10.144;2024-01-30T00:20:50;103459.38;;;5.04;92.59
75886;BME280;64561;44.018;10.144;2024-01-30T00:23:17;103466.44;;;4.98;93.05
75886;BME280;64561;44.018;10.144;2024-01-30T00:25:44;103461.94;;;4.86;93.32
75886;BME280;64561;44.018;10.144;2024-01-30T00:28:12;103458.06;;;4.80;93.60
75886;BME280;64561;44.018;10.144;2024-01-30T00:30:39;103464.59;;;4.87;93.45
75886;BME280;64561;44.018;10.144;2024-01-30T00:33:06;103457.94;;;4.98;92.89
75886;BME280;64561;44.018;10.144;2024-01-30T00:35:34;103459.31;;;4.94;91.50
75886;BME280;64561;44.018;10.144;2024-01-30T00:38:02;103453.09;;;4.91;91.52
75886;BME280;64561;44.018;10.144;2024-01-30T00:40:29;103467.94;;;4.96;92.26
75886;BME280;64561;44.018;10.144;2024-01-30T00:42:56;103466.44;;;4.98;92.15
75886;BME280;64561;44.018;10.144;2024-01-30T00:45:26;103467.06;;;4.96;90.85
75886;BME280;64561;44.018;10.144;2024-01-30T00:47:54;103462.47;;;4.73;91.26
75886;BME280;64561;44.018;10.144;2024-01-30T00:50:21;103463.22;;;4.72;92.04
75886;BME280;64561;44.018;10.144;2024-01-30T00:52:48;103468.22;;;4.62;92.90
75886;BME280;64561;44.018;10.144;2024-01-30T00:55:15;103472.94;;;4.48;94.10
75886;BME280;64561;44.018;10.144;2024-01-30T00:57:42;103475.34;;;4.38;95.28
75886;BME280;64561;44.018;10.144;2024-01-30T01:00:12;103477.00;;;4.38;95.60
75886;BME280;64561;44.018;10.144;2024-01-30T01:02:39;103475.50;;;4.40;95.97
75886;BME280;64561;44.018;10.144;2024-01-30T01:05:07;103475.03;;;4.44;95.78
75886;BME280;64561;44.018;10.144;2024-01-30T01:07:35;103468.00;;;4.50;95.38
75886;BME280;64561;44.018;10.144;2024-01-30T01:10:03;103477.59;;;4.63;95.07
75886;BME280;64561;44.018;10.144;2024-01-30T01:12:31;103481.94;;;4.64;94.34
75886;BME280;64561;44.018;10.144;2024-01-30T01:14:58;103473.00;;;4.58;95.07
75886;BME280;64561;44.018;10.144;2024-01-30T01:17:30;103476.50;;;4.69;94.78
75886;BME280;64561;44.018;10.144;2024-01-30T01:19:57;103480.69;;;4.69;93.65
75886;BME280;64561;44.018;10.144;2024-01-30T01:22:26;103471.97;;;4.56;93.42
75886;BME280;64561;44.018;10.144;2024-01-30T01:24:53;103475.66;;;4.60;93.79
75886;BME280;64561;44.018;10.144;2024-01-30T01:27:20;103469.97;;;4.63;94.29
75886;BME280;64561;44.018;10.144;2024-01-30T01:29:48;103471.84;;;4.55;92.20
75886;BME280;64561;44.018;10.144;2024-01-30T01:32:15;103478.72;;;4.47;93.41
75886;BME280;64561;44.018;10.144;2024-01-30T01:34:43;103461.88;;;4.48;93.64
75886;BME280;64561;44.018;10.144;2024-01-30T01:37:11;103467.66;;;4.55;93.79
75886;BME280;64561;44.018;10.144;2024-01-30T01:39:39;103464.13;;;4.45;93.19
75886;BME280;64561;44.018;10.144;2024-01-30T01:42:06;103468.75;;;4.49;93.69
75886;BME280;64561;44.018;10.144;2024-01-30T01:44:34;103445.94;;;4.49;93.64
75886;BME280;64561;44.018;10.144;2024-01-30T01:47:01;103451.66;;;4.38;94.29
75886;BME280;64561;44.018;10.144;2024-01-30T01:49:29;103461.06;;;4.30;94.67
75886;BME280;64561;44.018;10.144;2024-01-30T01:51:58;103446.69;;;4.20;95.46
75886;BME280;64561;44.018;10.144;2024-01-30T01:54:26;103453.72;;;4.14;95.34
75886;BME280;64561;44.018;10.144;2024-01-30T01:56:55;103445.81;;;4.11;95.26
75886;BME280;64561;44.018;10.144;2024-01-30T01:59:23;103452.75;;;4.03;95.04
75886;BME280;64561;44.018;10.144;2024-01-30T02:02:00;103452.91;;;3.96;96.38
75886;BME280;64561;44.018;10.144;2024-01-30T02:04:30;103444.56;;;3.97;96.82
75886;BME280;64561;44.018;10.144;2024-01-30T02:07:33;103455.97;;;4.11;95.37
75886;BME280;64561;44.018;10.144;2024-01-30T02:10:07;103452.06;;;4.15;95.19
75886;BME280;64561;44.018;10.144;2024-01-30T02:12:36;103453.69;;;4.23;95.41
75886;BME280;64561;44.018;10.144;2024-01-30T02:15:03;103440.63;;;4.09;94.68
75886;BME280;64561;44.018;10.144;2024-01-30T02:17:40;103450.19;;;4.03;96.68
75886;BME280;64561;44.018;10.144;2024-01-30T02:20:12;103436.97;;;3.97;96.73
75886;BME280;64561;44.018;10.144;2024-01-30T02:27:43;103412.09;;;3.93;96.62
75886;BME280;64561;44.018;10.144;2024-01-30T02:30:11;103431.09;;;4.07;96.27
75886;BME280;64561;44.018;10.144;2024-01-30T02:32:38;103435.72;;;4.02;96.89
75886;BME280;64561;44.018;10.144;2024-01-30T02:35:06;103429.13;;;4.13;96.47
75886;BME280;64561;44.018;10.144;2024-01-30T02:37:36;103430.66;;;4.02;95.85
75886;BME280;64561;44.018;10.144;2024-01-30T02:40:04;103432.34;;;3.93;96.75
75886;BME280;64561;44.018;10.144;2024-01-30T02:42:31;103435.34;;;3.89;96.93
75886;BME280;64561;44.018;10.144;2024-01-30T02:44:58;103430.72;;;3.85;97.59
75886;BME280;64561;44.018;10.144;2024-01-30T02:47:29;103431.50;;;3.84;98.47
75886;BME280;64561;44.018;10.144;2024-01-30T02:49:56;103426.59;;;3.85;97.18
75886;BME280;64561;44.018;10.144;2024-01-30T02:52:23;103432.66;;;3.87;97.33
75886;BME280;64561;44.018;10.144;2024-01-30T02:54:50;103427.75;;;3.89;97.56
75886;BME280;64561;44.018;10.144;2024-01-30T02:57:18;103427.16;;;3.92;97.13
75886;BME280;64561;44.018;10.144;2024-01-30T02:59:45;103425.63;;;3.94;97.37
75886;BME280;64561;44.018;10.144;2024-01-30T03:02:12;103425.03;;;3.96;97.24
75886;BME280;64561;44.018;10.144;2024-01-30T03:04:42;103419.28;;;3.88;97.14
75886;BME280;64561;44.018;10.144;2024-01-30T03:07:10;103425.38;;;3.82;98.09
75886;BME280;64561;44.018;10.144;2024-01-30T03:09:37;103422.84;;;3.82;97.82
75886;BME280;64561;44.018;10.144;2024-01-30T03:12:05;103408.28;;;3.79;97.43
75886;BME280;64561;44.018;10.144;2024-01-30T03:14:36;103419.28;;;3.88;96.87
75886;BME280;64561;44.018;10.144;2024-01-30T03:17:03;103419.88;;;3.86;97.33
75886;BME280;64561;44.018;10.144;2024-01-30T03:19:30;103416.91;;;3.81;97.35
75886;BME280;64561;44.018;10.144;2024-01-30T03:21:58;103425.38;;;3.82;97.43
75886;BME280;64561;44.018;10.144;2024-01-30T03:24:26;103423.59;;;3.89;97.05
75886;BME280;64561;44.018;10.144;2024-01-30T03:26:53;103425.66;;;3.85;96.51
75886;BME280;64561;44.018;10.144;2024-01-30T03:29:20;103413.66;;;3.74;97.07
75886;BME280;64561;44.018;10.144;2024-01-30T03:31:47;103417.97;;;3.75;97.08
75886;BME280;64561;44.018;10.144;2024-01-30T03:34:14;103424.50;;;3.81;97.25
75886;BME280;64561;44.018;10.144;2024-01-30T03:36:42;103417.50;;;3.79;96.51
75886;BME280;64561;44.018;10.144;2024-01-30T03:39:09;103419.75;;;3.76;96.53
75886;BME280;64561;44.018;10.144;2024-01-30T03:41:36;103421.25;;;3.74;96.79
75886;BME280;64561;44.018;10.144;2024-01-30T03:44:03;103420.09;;;3.70;97.21
75886;BME280;64561;44.018;10.144;2024-01-30T03:46:30;103421.09;;;3.72;96.79
75886;BME280;64561;44.018;10.144;2024-01-30T03:48:58;103417.28;;;3.67;96.61
75886;BME280;64561;44.018;10.144;2024-01-30T03:51:25;103421.88;;;3.62;97.57
75886;BME280;64561;44.018;10.144;2024-01-30T03:53:52;103429.00;;;3.75;97.51
75886;BME280;64561;44.018;10.144;2024-01-30T03:56:19;103424.66;;;3.83;96.92
75886;BME280;64561;44.018;10.144;2024-01-30T03:58:46;103423.03;;;3.75;96.12
75886;BME280;64561;44.018;10.144;2024-01-30T04:01:14;103426.34;;;3.65;96.91
75886;BME280;64561;44.018;10.144;2024-01-30T04:03:42;103428.72;;;3.63;97.12
75886;BME280;64561;44.018;10.144;2024-01-30T04:06:11;103426.06;;;3.62;97.10
75886;BME280;64561;44.018;10.144;2024-01-30T04:08:39;103425.03;;;3.60;97.93
75886;BME280;64561;44.018;10.144;2024-01-30T04:11:06;103420.13;;;3.61;97.18
75886;BME280;64561;44.018;10.144;2024-01-30T04:13:33;103419.19;;;3.70;97.25
75886;BME280;64561;44.018;10.144;2024-01-30T04:16:01;103418.56;;;3.81;96.74
75886;BME280;64561;44.018;10.144;2024-01-30T04:18:29;103418.25;;;3.78;96.79
75886;BME280;64561;44.018;10.144;2024-01-30T04:20:56;103421.41;;;3.75;96.87
75886;BME280;64561;44.018;10.144;2024-01-30T04:23:24;103413.97;;;3.77;97.03
75886;BME280;64561;44.018;10.144;2024-01-30T04:25:51;103419.47;;;3.73;96.58
75886;BME280;64561;44.018;10.144;2024-01-30T04:28:18;103415.94;;;3.62;97.52
75886;BME280;64561;44.018;10.144;2024-01-30T04:30:45;103413.84;;;3.58;97.89
75886;BME280;64561;44.018;10.144;2024-01-30T04:33:13;103413.56;;;3.55;97.72
75886;BME280;64561;44.018;10.144;2024-01-30T04:35:40;103419.34;;;3.62;97.70
75886;BME280;64561;44.018;10.144;2024-01-30T04:38:07;103413.22;;;3.69;97.28
75886;BME280;64561;44.018;10.144;2024-01-30T04:40:34;103414.97;;;3.79;97.20
75886;BME280;64561;44.018;10.144;2024-01-30T04:43:01;103413.78;;;3.84;96.93
75886;BME280;64561;44.018;10.144;2024-01-30T04:45:28;103411.56;;;3.70;95.33
75886;BME280;64561;44.018;10.144;2024-01-30T04:47:55;103412.06;;;3.65;96.68
75886;BME280;64561;44.018;10.144;2024-01-30T04:50:23;103411.66;;;3.52;96.78
75886;BME280;64561;44.018;10.144;2024-01-30T04:52:50;103420.13;;;3.53;97.75
75886;BME280;64561;44.018;10.144;2024-01-30T04:55:18;103420.13;;;3.53;97.46
75886;BME280;64561;44.018;10.144;2024-01-30T04:57:49;103421.63;;;3.51;97.79
75886;BME280;64561;44.018;10.144;2024-01-30T05:00:17;103414.78;;;3.50;98.36
75886;BME280;64561;44.018;10.144;2024-01-30T05:02:44;103415.97;;;3.53;97.60
75886;BME280;64561;44.018;10.144;2024-01-30T05:05:11;103415.06;;;3.61;97.75
75886;BME280;64561;44.018;10.144;2024-01-30T05:07:40;103429.94;;;3.67;96.13
75886;BME280;64561;44.018;10.144;2024-01-30T05:10:08;103421.16;;;3.55;96.53
75886;BME280;64561;44.018;10.144;2024-01-30T05:12:35;103421.63;;;3.51;97.03
75886;BME280;64561;44.018;10.144;2024-01-30T05:15:03;103426.28;;;3.46;97.26
75886;BME280;64561;44.018;10.144;2024-01-30T05:17:32;103426.41;;;3.39;97.90
75886;BME280;64561;44.018;10.144;2024-01-30T05:19:59;103428.53;;;3.34;98.38
75886;BME280;64561;44.018;10.144;2024-01-30T05:22:26;103425.53;;;3.38;98.25
75886;BME280;64561;44.018;10.144;2024-01-30T05:24:53;103425.06;;;3.34;98.99
75886;BME280;64561;44.018;10.144;2024-01-30T05:27:20;103425.25;;;3.35;98.47
75886;BME280;64561;44.018;10.144;2024-01-30T05:29:48;103427.59;;;3.42;99.46
75886;BME280;64561;44.018;10.144;2024-01-30T05:32:15;103425.19;;;3.53;98.54
75886;BME280;64561;44.018;10.144;2024-01-30T05:34:45;103430.41;;;3.54;97.52
75886;BME280;64561;44.018;10.144;2024-01-30T05:37:33;103426.84;;;3.52;97.92
75886;BME280;64561;44.018;10.144;2024-01-30T05:40:01;103424.91;;;3.50;96.76
75886;BME280;64561;44.018;10.144;2024-01-30T05:42:29;103419.41;;;3.45;97.22
75886;BME280;64561;44.018;10.144;2024-01-30T05:44:57;103428.63;;;3.44;97.94
75886;BME280;64561;44.018;10.144;2024-01-30T05:47:24;103422.81;;;3.46;97.79
75886;BME280;64561;44.018;10.144;2024-01-30T05:49:52;103426.69;;;3.42;97.59
75886;BME280;64561;44.018;10.144;2024-01-30T05:52:19;103425.81;;;3.50;97.97
75886;BME280;64561;44.018;10.144;2024-01-30T05:54:50;103422.50;;;3.51;97.37
75886;BME280;64561;44.018;10.144;2024-01-30T05:57:18;103427.88;;;3.54;97.27
75886;BME280;64561;44.018;10.144;2024-01-30T05:59:45;103424.59;;;3.55;96.66
75886;BME280;64561;44.018;10.144;2024-01-30T06:02:14;103422.38;;;3.50;97.31
75886;BME280;64561;44.018;10.144;2024-01-30T06:04:42;103416.25;;;3.56;97.13
75886;BME280;64561;44.018;10.144;2024-01-30T06:07:09;103417.72;;;3.63;97.54
75886;BME280;64561;44.018;10.144;2024-01-30T06:09:36;103408.16;;;3.69;97.06
75886;BME280;64561;44.018;10.144;2024-01-30T06:12:05;103409.34;;;3.73;96.77
75886;BME280;64561;44.018;10.144;2024-01-30T06:14:32;103412.16;;;3.76;96.73
75886;BME280;64561;44.018;10.144;2024-01-30T06:17:00;103413.19;;;3.78;96.79
75886;BME280;64561;44.018;10.144;2024-01-30T06:19:27;103423.50;;;3.71;94.80
75886;BME280;64561;44.018;10.144;2024-01-30T06:21:57;103423.81;;;3.65;95.66
75886;BME280;64561;44.018;10.144;2024-01-30T06:24:27;103427.25;;;3.65;95.89
75886;BME280;64561;44.018;10.144;2024-01-30T06:26:54;103431.25;;;3.63;95.43
75886;BME280;64561;44.018;10.144;2024-01-30T06:29:22;103433.78;;;3.63;95.93
75886;BME280;64561;44.018;10.144;2024-01-30T06:31:51;103435.00;;;3.67;96.20
75886;BME280;64561;44.018;10.144;2024-01-30T06:34:18;103434.06;;;3.66;96.03
75886;BME280;64561;44.018;10.144;2024-01-30T06:36:46;103440.94;;;3.67;95.35
75886;BME280;64561;44.018;10.144;2024-01-30T06:39:13;103437.41;;;3.48;95.88
75886;BME280;64561;44.018;10.144;2024-01-30T06:41:40;103441.31;;;3.36;96.88
75886;BME280;64561;44.018;10.144;2024-01-30T06:44:07;103440.13;;;3.24;97.80
75886;BME280;64561;44.018;10.144;2024-01-30T06:46:35;103444.91;;;3.20;98.71
75886;BME280;64561;44.018;10.144;2024-01-30T06:49:02;103448.91;;;3.18;98.87
75886;BME280;64561;44.018;10.144;2024-01-30T06:51:29;103445.66;;;3.19;98.88
75886;BME280;64561;44.018;10.144;2024-01-30T06:53:57;103450.84;;;3.21;98.96
75886;BME280;64561;44.018;10.144;2024-01-30T06:56:24;103446.84;;;3.23;99.64
75886;BME280;64561;44.018;10.144;2024-01-30T06:58:52;103455.00;;;3.20;99.70
75886;BME280;64561;44.018;10.144;2024-01-30T07:01:19;103453.06;;;3.18;100.00
75886;BME280;64561;44.018;10.144;2024-01-30T07:03:46;103451.91;;;3.23;99.83
75886;BME280;64561;44.018;10.144;2024-01-30T07:06:13;103443.72;;;3.26;100.00
75886;BME280;64561;44.018;10.144;2024-01-30T07:08:41;103451.59;;;3.20;100.00
75886;BME280;64561;44.018;10.144;2024-01-30T07:11:08;103447.59;;;3.22;100.00
75886;BME280;64561;44.018;10.144;2024-01-30T07:13:35;103454.13;;;3.29;100.00
75886;BME280;64561;44.018;10.144;2024-01-30T07:16:04;103458.56;;;3.40;100.00
75886;BME280;64561;44.018;10.144;2024-01-30T07:18:32;103459.16;;;3.46;100.00
75886;BME280;64561;44.018;10.144;2024-01-30T07:20:59;103465.69;;;3.53;100.00
75886;BME280;64561;44.018;10.144;2024-01-30T07:23:26;103472.69;;;3.55;100.00
75886;BME280;64561;44.018;10.144;2024-01-30T07:25:53;103481.00;;;3.63;100.00
75886;BME280;64561;44.018;10.144;2024-01-30T07:28:21;103472.34;;;3.70;100.00
75886;BME280;64561;44.018;10.144;2024-01-30T07:31:31;103480.06;;;3.80;100.00
75886;BME280;64561;44.018;10.144;2024-01-30T07:34:08;103462.09;;;3.68;100.00
75886;BME280;64561;44.018;10.144;2024-01-30T07:36:38;103471.03;;;3.73;100.00
75886;BME280;64561;44.018;10.144;2024-01-30T07:39:05;103467.41;;;3.80;100.00
75886;BME280;64561;44.018;10.144;2024-01-30T07:41:33;103488.06;;;3.93;100.00
75886;BME280;64561;44.018;10.144;2024-01-30T07:44:00;103492.03;;;4.08;100.00
75886;BME280;64561;44.018;10.144;2024-01-30T07:46:27;103497.38;;;4.11;100.00
75886;BME280;64561;44.018;10.144;2024-01-30T07:48:55;103494.53;;;4.17;100.00
75886;BME280;64561;44.018;10.144;2024-01-30T07:51:24;103488.09;;;4.21;100.00
75886;BME280;64561;44.018;10.144;2024-01-30T07:53:51;103492.41;;;4.30;100.00
75886;BME280;64561;44.018;10.144;2024-01-30T07:56:18;103491.88;;;4.43;100.00
75886;BME280;64561;44.018;10.144;2024-01-30T07:58:45;103496.16;;;4.53;100.00
75886;BME280;64561;44.018;10.144;2024-01-30T08:01:12;103488.78;;;4.65;100.00
75886;BME280;64561;44.018;10.144;2024-01-30T08:03:39;103495.84;;;4.77;100.00
75886;BME280;64561;44.018;10.144;2024-01-30T08:06:09;103497.28;;;4.84;99.98
75886;BME280;64561;44.018;10.144;2024-01-30T08:08:36;103496.34;;;4.92;99.46
75886;BME280;64561;44.018;10.144;2024-01-30T08:11:04;103493.63;;;4.99;98.96
75886;BME280;64561;44.018;10.144;2024-01-30T08:13:32;103500.06;;;5.15;98.18
75886;BME280;64561;44.018;10.144;2024-01-30T08:15:59;103514.22;;;5.32;96.98
75886;BME280;64561;44.018;10.144;2024-01-30T08:18:27;103501.25;;;5.47;94.87
75886;BME280;64561;44.018;10.144;2024-01-30T08:20:54;103505.00;;;5.61;94.03
75886;BME280;64561;44.018;10.144;2024-01-30T08:23:21;103512.03;;;5.74;92.66
75886;BME280;64561;44.018;10.144;2024-01-30T08:25:48;103512.72;;;5.82;92.07
75886;BME280;64561;44.018;10.144;2024-01-30T08:28:15;103514.00;;;5.87;91.50
75886;BME280;64561;44.018;10.144;2024-01-30T08:30:49;103514.00;;;5.87;91.07
75886;BME280;64561;44.018;10.144;2024-01-30T08:33:17;103511.47;;;5.87;91.05
75886;BME280;64561;44.018;10.144;2024-01-30T08:35:45;103512.75;;;5.92;90.86
75886;BME280;64561;44.018;10.144;2024-01-30T08:38:13;103507.34;;;5.98;91.23
75886;BME280;64561;44.018;10.144;2024-01-30T08:40:40;103502.16;;;6.06;91.03
75886;BME280;64561;44.018;10.144;2024-01-30T08:43:10;103513.25;;;6.17;90.69
75886;BME280;64561;44.018;10.144;2024-01-30T08:45:51;103507.78;;;6.23;91.01
75886;BME280;64561;44.018;10.144;2024-01-30T08:48:18;103515.66;;;6.26;91.52
75886;BME280;64561;44.018;10.144;2024-01-30T08:50:46;103518.97;;;6.25;92.29
75886;BME280;64561;44.018;10.144;2024-01-30T08:53:13;103517.31;;;6.25;92.97
75886;BME280;64561;44.018;10.144;2024-01-30T08:55:40;103512.63;;;6.30;93.90
75886;BME280;64561;44.018;10.144;2024-01-30T08:58:08;103515.94;;;6.39;93.62
75886;BME280;64561;44.018;10.144;2024-01-30T09:00:35;103521.41;;;6.44;94.19
75886;BME280;64561;44.018;10.144;2024-01-30T09:03:03;103523.97;;;6.54;94.06
75886;BME280;64561;44.018;10.144;2024-01-30T09:05:30;103522.72;;;6.59;93.88
75886;BME280;64561;44.018;10.144;2024-01-30T09:07:57;103512.28;;;6.66;93.37
75886;BME280;64561;44.018;10.144;2024-01-30T09:10:24;103523.09;;;6.74;93.26
75886;BME280;64561;44.018;10.144;2024-01-30T09:12:52;103529.34;;;6.87;93.34
75886;BME280;64561;44.018;10.144;2024-01-30T09:15:19;103528.31;;;6.96;92.66
75886;BME280;64561;44.018;10.144;2024-01-30T09:17:49;103519.91;;;6.97;92.52
75886;BME280;64561;44.018;10.144;2024-01-30T09:20:17;103518.78;;;6.93;90.27
75886;BME280;64561;44.018;10.144;2024-01-30T09:22:46;103523.72;;;6.92;91.12
75886;BME280;64561;44.018;10.144;2024-01-30T09:25:14;103530.34;;;6.90;90.60
75886;BME280;64561;44.018;10.144;2024-01-30T09:27:42;103525.28;;;6.90;91.65
75886;BME280;64561;44.018;10.144;2024-01-30T09:30:09;103528.56;;;6.88;91.47
75886;BME280;64561;44.018;10.144;2024-01-30T09:32:36;103533.16;;;6.93;94.52
75886;BME280;64561;44.018;10.144;2024-01-30T09:35:13;103532.50;;;7.05;94.10
75886;BME280;64561;44.018;10.144;2024-01-30T09:37:40;103535.16;;;7.17;92.75
75886;BME280;64561;44.018;10.144;2024-01-30T09:40:08;103535.66;;;7.23;93.78
75886;BME280;64561;44.018;10.144;2024-01-30T09:42:36;103535.13;;;7.27;92.62
75886;BME280;64561;44.018;10.144;2024-01-30T09:45:06;103538.69;;;7.40;91.66
75886;BME280;64561;44.018;10.144;2024-01-30T09:47:44;103541.72;;;7.46;92.11
75886;BME280;64561;44.018;10.144;2024-01-30T09:50:13;103542.09;;;7.50;91.83
75886;BME280;64561;44.018;10.144;2024-01-30T09:52:46;103540.44;;;7.51;91.63
75886;BME280;64561;44.018;10.144;2024-01-30T09:55:14;103539.16;;;7.56;91.93
75886;BME280;64561;44.018;10.144;2024-01-30T09:57:41;103543.63;;;7.59;91.54
75886;BME280;64561;44.018;10.144;2024-01-30T10:00:10;103534.63;;;7.74;91.96
75886;BME280;64561;44.018;10.144;2024-01-30T10:02:40;103538.41;;;7.89;92.25
75886;BME280;64561;44.018;10.144;2024-01-30T10:05:08;103529.22;;;7.91;91.22
75886;BME280;64561;44.018;10.144;2024-01-30T10:07:36;103534.72;;;8.08;91.49
75886;BME280;64561;44.018;10.144;2024-01-30T10:10:05;103533.91;;;8.19;90.26
75886;BME280;64561;44.018;10.144;2024-01-30T10:12:34;103527.44;;;8.34;88.32
75886;BME280;64561;44.018;10.144;2024-01-30T10:15:01;103531.75;;;8.45;87.22
75886;BME280;64561;44.018;10.144;2024-01-30T10:17:30;103523.78;;;8.53;86.68
75886;BME280;64561;44.018;10.144;2024-01-30T10:20:04;103524.56;;;8.52;87.19
75886;BME280;64561;44.018;10.144;2024-01-30T10:22:32;103521.31;;;8.54;89.02
75886;BME280;64561;44.018;10.144;2024-01-30T10:25:00;103520.72;;;8.68;90.25
75886;BME280;64561;44.018;10.144;2024-01-30T10:27:32;103520.88;;;8.82;87.97
75886;BME280;64561;44.018;10.144;2024-01-30T10:29:59;103517.34;;;8.91;85.30
75886;BME280;64561;44.018;10.144;2024-01-30T10:32:26;103519.47;;;8.97;84.02
75886;BME280;64561;44.018;10.144;2024-01-30T10:34:54;103517.44;;;8.93;83.83
75886;BME280;64561;44.018;10.144;2024-01-30T10:37:25;103508.22;;;8.95;85.24
75886;BME280;64561;44.018;10.144;2024-01-30T10:39:56;103517.00;;;8.99;84.79
75886;BME280;64561;44.018;10.144;2024-01-30T10:42:32;103509.03;;;9.06;85.47
75886;BME280;64561;44.018;10.144;2024-01-30T10:45:05;103503.03;;;9.17;85.99
75886;BME280;64561;44.018;10.144;2024-01-30T10:47:39;103501.47;;;9.31;86.01
75886;BME280;64561;44.018;10.144;2024-01-30T10:50:08;103503.38;;;9.45;85.40
75886;BME280;64561;44.018;10.144;2024-01-30T10:52:37;103494.25;;;9.49;82.84
75886;BME280;64561;44.018;10.144;2024-01-30T10:55:04;103492.13;;;9.55;82.12
75886;BME280;64561;44.018;10.144;2024-01-30T10:57:35;103493.88;;;9.68;81.38
75886;BME280;64561;44.018;10.144;2024-01-30T11:00:13;103485.53;;;9.70;80.51
75886;BME280;64561;44.018;10.144;2024-01-30T11:02:46;103478.75;;;9.71;80.54
75886;BME280;64561;44.018;10.144;2024-01-30T11:05:23;103485.53;;;9.82;81.13
75886;BME280;64561;44.018;10.144;2024-01-30T11:07:56;103471.69;;;9.92;79.57
75886;BME280;64561;44.018;10.144;2024-01-30T11:10:24;103472.66;;;10.05;79.47
75886;BME280;64561;44.018;10.144;2024-01-30T11:12:52;103476.00;;;10.04;78.89
75886;BME280;64561;44.018;10.144;2024-01-30T11:15:19;103469.91;;;10.02;76.75
75886;BME280;64561;44.018;10.144;2024-01-30T11:22:47;103466.19;;;10.11;73.92
75886;BME280;64561;44.018;10.144;2024-01-30T11:25:16;103459.09;;;10.06;73.40
75886;BME280;64561;44.018;10.144;2024-01-30T11:28:02;103461.34;;;10.02;74.01
75886;BME280;64561;44.018;10.144;2024-01-30T11:30:31;103460.19;;;10.10;72.97
75886;BME280;64561;44.018;10.144;2024-01-30T11:33:05;103455.00;;;10.34;66.99
75886;BME280;64561;44.018;10.144;2024-01-30T11:35:39;103452.25;;;10.44;66.51
75886;BME280;64561;44.018;10.144;2024-01-30T11:38:09;103454.03;;;10.45;64.72
75886;BME280;64561;44.018;10.144;2024-01-30T11:40:38;103448.66;;;10.53;66.37
75886;BME280;64561;44.018;10.144;2024-01-30T11:43:07;103451.03;;;10.64;65.71
75886;BME280;64561;44.018;10.144;2024-01-30T11:45:36;103443.66;;;10.68;65.91
75886;BME280;64561;44.018;10.144;2024-01-30T11:48:04;103435.88;;;10.67;65.78
75886;BME280;64561;44.018;10.144;2024-01-30T11:50:33;103442.88;;;10.69;67.54
75886;BME280;64561;44.018;10.144;2024-01-30T11:53:01;103439.44;;;10.69;67.38
75886;BME280;64561;44.018;10.144;2024-01-30T11:55:32;103437.53;;;10.66;66.42
75886;BME280;64561;44.018;10.144;2024-01-30T11:58:01;103432.06;;;10.87;66.74
75886;BME280;64561;44.018;10.144;2024-01-30T12:00:30;103426.94;;;10.87;67.12
75886;BME280;64561;44.018;10.144;2024-01-30T12:03:00;103428.50;;;10.98;65.33
75886;BME280;64561;44.018;10.144;2024-01-30T12:05:28;103430.16;;;10.97;66.32
75886;BME280;64561;44.018;10.144;2024-01-30T12:07:57;103425.16;;;11.12;65.24
75886;BME280;64561;44.018;10.144;2024-01-30T12:10:29;103427.09;;;11.30;63.88
75886;BME280;64561;44.018;10.144;2024-01-30T12:12:57;103423.16;;;11.35;62.84
75886;BME280;64561;44.018;10.144;2024-01-30T12:15:25;103423.78;;;11.17;62.88
75886;BME280;64561;44.018;10.144;2024-01-30T12:18:04;103422.38;;;11.09;63.41
75886;BME280;64561;44.018;10.144;2024-01-30T12:20:32;103406.44;;;11.13;64.09
75886;BME280;64561;44.018;10.144;2024-01-30T12:22:59;103409.66;;;11.24;61.80
75886;BME280;64561;44.018;10.144;2024-01-30T12:25:26;103406.78;;;11.33;61.49
75886;BME280;64561;44.018;10.144;2024-01-30T12:27:54;103402.75;;;11.36;60.24
75886;BME280;64561;44.018;10.144;2024-01-30T12:30:21;103398.47;;;11.50;61.25
75886;BME280;64561;44.018;10.144;2024-01-30T12:32:50;103397.78;;;11.53;59.77
75886;BME280;64561;44.018;10.144;2024-01-30T12:35:20;103393.22;;;11.62;58.39
75886;BME280;64561;44.018;10.144;2024-01-30T12:37:49;103385.16;;;11.56;57.54
75886;BME280;64561;44.018;10.144;2024-01-30T12:40:17;103389.22;;;11.52;57.09
75886;BME280;64561;44.018;10.144;2024-01-30T12:42:46;103381.97;;;11.60;57.58
75886;BME280;64561;44.018;10.144;2024-01-30T12:45:16;103372.97;;;11.66;56.38
75886;BME280;64561;44.018;10.144;2024-01-30T12:47:49;103375.19;;;11.75;56.97
75886;BME280;64561;44.018;10.144;2024-01-30T12:50:16;103367.50;;;11.75;56.03
75886;BME280;64561;44.018;10.144;2024-01-30T12:52:45;103366.91;;;11.79;56.23
75886;BME280;64561;44.018;10.144;2024-01-30T12:55:16;103361.16;;;11.83;56.47
75886;BME280;64561;44.018;10.144;2024-01-30T12:57:45;103368.47;;;11.90;57.08
75886;BME280;64561;44.018;10.144;2024-01-30T13:00:13;103364.94;;;11.88;57.20
75886;BME280;64561;44.018;10.144;2024-01-30T13:02:41;103356.63;;;11.93;56.23
75886;BME280;64561;44.018;10.144;2024-01-30T13:05:09;103354.84;;;11.92;57.36